sensor_id;sensor_type;location;lat;lon;timestamp;temperature;humidity
44723;DHT22;30451;48.638;10.624;2023-11-18T00:01:22;21.60;55.70
44723;DHT22;30451;48.638;10.624;2023-11-18T00:03:47;21.60;55.70
44723;DHT22;30451;48.638;10.624;2023-11-18T00:06:13;21.50;55.70
44723;DHT22;30451;48.638;10.624;2023-11-18T00:08:39;21.50;55.70
44723;DHT22;30451;48.638;10.624;2023-11-18T00:11:04;21.50;55.70
44723;DHT22;30451;48.638;10.624;2023-11-18T00:13:30;21.50;55.70
44723;DHT22;30451;48.638;10.624;2023-11-18T00:15:56;21.50;56.30
44723;DHT22;30451;48.638;10.624;2023-11-18T00:18:23;21.50;55.80
44723;DHT22;30451;48.638;10.624;2023-11-18T00:20:48;21.50;55.80
44723;DHT22;30451;48.638;10.624;2023-11-18T00:23:16;21.40;55.80
44723;DHT22;30451;48.638;10.624;2023-11-18T00:25:42;21.40;55.80
44723;DHT22;30451;48.638;10.624;2023-11-18T00:28:10;21.40;55.80
44723;DHT22;30451;48.638;10.624;2023-11-18T00:30:37;21.40;55.80
44723;DHT22;30451;48.638;10.624;2023-11-18T00:33:02;21.40;55.90
44723;DHT22;30451;48.638;10.624;2023-11-18T00:35:28;21.40;55.90
44723;DHT22;30451;48.638;10.624;2023-11-18T00:37:57;21.30;55.80
44723;DHT22;30451;48.638;10.624;2023-11-18T00:40:23;21.40;55.90
44723;DHT22;30451;48.638;10.624;2023-11-18T00:42:49;21.30;55.90
44723;DHT22;30451;48.638;10.624;2023-11-18T00:45:15;21.30;55.90
44723;DHT22;30451;48.638;10.624;2023-11-18T00:47:40;21.30;55.90
44723;DHT22;30451;48.638;10.624;2023-11-18T00:50:07;21.30;56.00
44723;DHT22;30451;48.638;10.624;2023-11-18T00:52:36;21.30;56.00
44723;DHT22;30451;48.638;10.624;2023-11-18T00:55:04;21.30;56.00
44723;DHT22;30451;48.638;10.624;2023-11-18T00:57:31;21.30;56.00
44723;DHT22;30451;48.638;10.624;2023-11-18T00:59:57;21.20;56.00
44723;DHT22;30451;48.638;10.624;2023-11-18T01:02:23;21.20;56.00
44723;DHT22;30451;48.638;10.624;2023-11-18T01:04:49;21.20;56.00
44723;DHT22;30451;48.638;10.624;2023-11-18T01:07:16;21.20;56.00
44723;DHT22;30451;48.638;10.624;2023-11-18T01:09:41;21.20;56.00
44723;DHT22;30451;48.638;10.624;2023-11-18T01:12:07;21.20;56.10
44723;DHT22;30451;48.638;10.624;2023-11-18T01:14:38;21.20;56.10
44723;DHT22;30451;48.638;10.624;2023-11-18T01:17:08;21.20;56.10
44723;DHT22;30451;48.638;10.624;2023-11-18T01:19:35;21.20;56.20
44723;DHT22;30451;48.638;10.624;2023-11-18T01:22:01;21.20;56.20
44723;DHT22;30451;48.638;10.624;2023-11-18T01:24:30;21.10;56.10
44723;DHT22;30451;48.638;10.624;2023-11-18T01:26:56;21.10;56.10
44723;DHT22;30451;48.638;10.624;2023-11-18T01:29:21;21.10;56.20
44723;DHT22;30451;48.638;10.624;2023-11-18T01:31:47;21.10;56.20
44723;DHT22;30451;48.638;10.624;2023-11-18T01:34:13;21.10;56.20
44723;DHT22;30451;48.638;10.624;2023-11-18T01:36:39;21.10;56.20
44723;DHT22;30451;48.638;10.624;2023-11-18T01:39:04;21.00;56.20
44723;DHT22;30451;48.638;10.624;2023-11-18T01:41:30;21.00;56.20
44723;DHT22;30451;48.638;10.624;2023-11-18T01:43:58;21.00;56.20
44723;DHT22;30451;48.638;10.624;2023-11-18T01:46:25;21.00;56.20
44723;DHT22;30451;48.638;10.624;2023-11-18T01:48:51;21.00;56.20
44723;DHT22;30451;48.638;10.624;2023-11-18T01:51:18;21.00;56.30
44723;DHT22;30451;48.638;10.624;2023-11-18T01:53:47;21.00;56.30
44723;DHT22;30451;48.638;10.624;2023-11-18T01:56:15;21.00;56.30
44723;DHT22;30451;48.638;10.624;2023-11-18T01:58:41;21.00;56.30
44723;DHT22;30451;48.638;10.624;2023-11-18T02:01:07;21.00;56.30
44723;DHT22;30451;48.638;10.624;2023-11-18T02:03:36;20.90;56.30
44723;DHT22;30451;48.638;10.624;2023-11-18T02:06:04;20.90;56.30
44723;DHT22;30451;48.638;10.624;2023-11-18T02:08:32;20.90;56.30
44723;DHT22;30451;48.638;10.624;2023-11-18T02:11:10;20.90;56.30
44723;DHT22;30451;48.638;10.624;2023-11-18T02:13:40;20.90;56.30
44723;DHT22;30451;48.638;10.624;2023-11-18T02:16:08;20.90;56.30
44723;DHT22;30451;48.638;10.624;2023-11-18T02:18:35;20.90;56.40
44723;DHT22;30451;48.638;10.624;2023-11-18T02:21:05;20.90;56.40
44723;DHT22;30451;48.638;10.624;2023-11-18T02:23:33;20.90;56.30
44723;DHT22;30451;48.638;10.624;2023-11-18T02:25:59;20.90;56.40
44723;DHT22;30451;48.638;10.624;2023-11-18T02:28:27;20.80;56.30
44723;DHT22;30451;48.638;10.624;2023-11-18T02:31:01;20.80;56.40
44723;DHT22;30451;48.638;10.624;2023-11-18T02:33:35;20.90;56.40
44723;DHT22;30451;48.638;10.624;2023-11-18T02:36:10;20.80;56.40
44723;DHT22;30451;48.638;10.624;2023-11-18T02:38:44;20.80;56.40
44723;DHT22;30451;48.638;10.624;2023-11-18T02:41:13;20.80;56.40
44723;DHT22;30451;48.638;10.624;2023-11-18T02:43:40;20.80;56.40
44723;DHT22;30451;48.638;10.624;2023-11-18T02:46:07;20.80;56.40
44723;DHT22;30451;48.638;10.624;2023-11-18T02:48:34;20.80;56.40
44723;DHT22;30451;48.638;10.624;2023-11-18T02:51:01;20.80;56.40
44723;DHT22;30451;48.638;10.624;2023-11-18T02:53:27;20.80;56.40
44723;DHT22;30451;48.638;10.624;2023-11-18T02:55:53;20.70;56.40
44723;DHT22;30451;48.638;10.624;2023-11-18T02:58:19;20.80;56.40
44723;DHT22;30451;48.638;10.624;2023-11-18T03:00:45;20.70;56.40
44723;DHT22;30451;48.638;10.624;2023-11-18T03:03:11;20.70;56.40
44723;DHT22;30451;48.638;10.624;2023-11-18T03:05:38;20.70;56.40
44723;DHT22;30451;48.638;10.624;2023-11-18T03:08:04;20.70;56.40
44723;DHT22;30451;48.638;10.624;2023-11-18T03:10:34;20.70;56.40
44723;DHT22;30451;48.638;10.624;2023-11-18T03:13:01;20.70;56.40
44723;DHT22;30451;48.638;10.624;2023-11-18T03:15:27;20.70;56.50
44723;DHT22;30451;48.638;10.624;2023-11-18T03:17:54;20.70;56.50
44723;DHT22;30451;48.638;10.624;2023-11-18T03:20:20;20.70;56.50
44723;DHT22;30451;48.638;10.624;2023-11-18T03:22:48;20.70;56.50
44723;DHT22;30451;48.638;10.624;2023-11-18T03:25:16;20.70;56.50
44723;DHT22;30451;48.638;10.624;2023-11-18T03:27:42;20.70;56.50
44723;DHT22;30451;48.638;10.624;2023-11-18T03:30:09;20.70;56.50
44723;DHT22;30451;48.638;10.624;2023-11-18T03:32:35;20.60;56.40
44723;DHT22;30451;48.638;10.624;2023-11-18T03:35:03;20.60;56.50
44723;DHT22;30451;48.638;10.624;2023-11-18T03:37:32;20.60;56.50
44723;DHT22;30451;48.638;10.624;2023-11-18T03:39:58;20.60;56.50
44723;DHT22;30451;48.638;10.624;2023-11-18T03:42:23;20.60;56.50
44723;DHT22;30451;48.638;10.624;2023-11-18T03:44:49;20.60;56.50
44723;DHT22;30451;48.638;10.624;2023-11-18T03:47:15;20.60;56.50
44723;DHT22;30451;48.638;10.624;2023-11-18T03:49:41;20.60;56.50
44723;DHT22;30451;48.638;10.624;2023-11-18T03:52:06;20.60;56.50
44723;DHT22;30451;48.638;10.624;2023-11-18T03:54:32;20.60;56.60
44723;DHT22;30451;48.638;10.624;2023-11-18T03:56:58;20.60;56.60
44723;DHT22;30451;48.638;10.624;2023-11-18T03:59:25;20.60;56.60
44723;DHT22;30451;48.638;10.624;2023-11-18T04:01:51;20.60;56.60
44723;DHT22;30451;48.638;10.624;2023-11-18T04:04:17;20.50;56.50
44723;DHT22;30451;48.638;10.624;2023-11-18T04:06:43;20.50;56.50
44723;DHT22;30451;48.638;10.624;2023-11-18T04:09:08;20.50;56.60
44723;DHT22;30451;48.638;10.624;2023-11-18T04:11:38;20.50;56.60
44723;DHT22;30451;48.638;10.624;2023-11-18T04:14:04;20.50;56.60
44723;DHT22;30451;48.638;10.624;2023-11-18T04:16:30;20.50;56.60
44723;DHT22;30451;48.638;10.624;2023-11-18T04:18:55;20.50;56.60
44723;DHT22;30451;48.638;10.624;2023-11-18T04:21:21;20.50;56.60
44723;DHT22;30451;48.638;10.624;2023-11-18T04:23:48;20.50;56.60
44723;DHT22;30451;48.638;10.624;2023-11-18T04:26:14;20.50;56.60
44723;DHT22;30451;48.638;10.624;2023-11-18T04:28:39;20.50;56.60
44723;DHT22;30451;48.638;10.624;2023-11-18T04:31:05;20.50;56.60
44723;DHT22;30451;48.638;10.624;2023-11-18T04:33:31;20.50;56.60
44723;DHT22;30451;48.638;10.624;2023-11-18T04:35:57;20.40;56.60
44723;DHT22;30451;48.638;10.624;2023-11-18T04:38:24;20.50;56.70
44723;DHT22;30451;48.638;10.624;2023-11-18T04:40:50;20.40;56.60
44723;DHT22;30451;48.638;10.624;2023-11-18T04:43:16;20.40;56.60
44723;DHT22;30451;48.638;10.624;2023-11-18T04:45:48;20.40;56.60
44723;DHT22;30451;48.638;10.624;2023-11-18T04:48:13;20.40;56.60
44723;DHT22;30451;48.638;10.624;2023-11-18T04:50:41;20.40;56.70
44723;DHT22;30451;48.638;10.624;2023-11-18T04:53:06;20.40;56.70
44723;DHT22;30451;48.638;10.624;2023-11-18T04:55:36;20.50;56.70
44723;DHT22;30451;48.638;10.624;2023-11-18T04:58:02;20.40;56.70
44723;DHT22;30451;48.638;10.624;2023-11-18T05:00:28;20.40;56.70
44723;DHT22;30451;48.638;10.624;2023-11-18T05:02:54;20.40;56.70
44723;DHT22;30451;48.638;10.624;2023-11-18T05:05:20;20.40;56.70
44723;DHT22;30451;48.638;10.624;2023-11-18T05:07:47;20.40;56.70
44723;DHT22;30451;48.638;10.624;2023-11-18T05:10:13;20.40;56.70
44723;DHT22;30451;48.638;10.624;2023-11-18T05:12:39;20.40;56.70
44723;DHT22;30451;48.638;10.624;2023-11-18T05:15:18;20.40;56.70
44723;DHT22;30451;48.638;10.624;2023-11-18T05:17:44;20.40;56.70
44723;DHT22;30451;48.638;10.624;2023-11-18T05:20:10;20.40;56.70
44723;DHT22;30451;48.638;10.624;2023-11-18T05:22:36;20.40;56.70
44723;DHT22;30451;48.638;10.624;2023-11-18T05:25:04;20.40;56.70
44723;DHT22;30451;48.638;10.624;2023-11-18T05:27:30;20.40;57.20
44723;DHT22;30451;48.638;10.624;2023-11-18T05:29:57;20.40;56.70
44723;DHT22;30451;48.638;10.624;2023-11-18T05:32:27;20.40;56.70
44723;DHT22;30451;48.638;10.624;2023-11-18T05:34:53;20.30;56.70
44723;DHT22;30451;48.638;10.624;2023-11-18T05:37:20;20.30;56.70
44723;DHT22;30451;48.638;10.624;2023-11-18T05:39:47;20.30;56.70
44723;DHT22;30451;48.638;10.624;2023-11-18T05:42:14;20.30;56.70
44723;DHT22;30451;48.638;10.624;2023-11-18T05:44:40;20.40;56.80
44723;DHT22;30451;48.638;10.624;2023-11-18T05:47:06;20.30;56.80
44723;DHT22;30451;48.638;10.624;2023-11-18T05:49:33;20.30;56.80
44723;DHT22;30451;48.638;10.624;2023-11-18T05:51:59;20.30;56.80
44723;DHT22;30451;48.638;10.624;2023-11-18T05:54:25;20.30;56.80
44723;DHT22;30451;48.638;10.624;2023-11-18T05:56:51;20.30;56.80
44723;DHT22;30451;48.638;10.624;2023-11-18T05:59:19;20.30;56.90
44723;DHT22;30451;48.638;10.624;2023-11-18T06:01:44;20.30;56.80
44723;DHT22;30451;48.638;10.624;2023-11-18T06:04:10;20.30;56.80
44723;DHT22;30451;48.638;10.624;2023-11-18T06:06:36;20.30;56.90
44723;DHT22;30451;48.638;10.624;2023-11-18T06:09:03;20.30;57.10
44723;DHT22;30451;48.638;10.624;2023-11-18T06:11:35;20.30;56.90
44723;DHT22;30451;48.638;10.624;2023-11-18T06:14:01;20.30;56.90
44723;DHT22;30451;48.638;10.624;2023-11-18T06:16:27;20.30;56.90
44723;DHT22;30451;48.638;10.624;2023-11-18T06:18:57;20.30;56.90
44723;DHT22;30451;48.638;10.624;2023-11-18T06:21:25;20.30;56.90
44723;DHT22;30451;48.638;10.624;2023-11-18T06:23:57;20.30;56.90
44723;DHT22;30451;48.638;10.624;2023-11-18T06:26:23;20.30;56.90
44723;DHT22;30451;48.638;10.624;2023-11-18T06:28:55;20.30;56.90
44723;DHT22;30451;48.638;10.624;2023-11-18T06:31:21;20.30;56.90
44723;DHT22;30451;48.638;10.624;2023-11-18T06:33:49;20.30;57.00
44723;DHT22;30451;48.638;10.624;2023-11-18T06:38:42;20.20;56.90
44723;DHT22;30451;48.638;10.624;2023-11-18T06:41:09;20.20;56.90
44723;DHT22;30451;48.638;10.624;2023-11-18T06:43:37;20.30;57.00
44723;DHT22;30451;48.638;10.624;2023-11-18T06:46:26;20.20;56.90
44723;DHT22;30451;48.638;10.624;2023-11-18T06:48:53;20.20;56.90
44723;DHT22;30451;48.638;10.624;2023-11-18T06:51:29;20.20;57.00
44723;DHT22;30451;48.638;10.624;2023-11-18T06:53:57;20.20;57.00
44723;DHT22;30451;48.638;10.624;2023-11-18T06:56:27;20.20;57.00
44723;DHT22;30451;48.638;10.624;2023-11-18T06:58:53;20.20;57.00
44723;DHT22;30451;48.638;10.624;2023-11-18T07:01:19;20.20;57.00
44723;DHT22;30451;48.638;10.624;2023-11-18T07:03:46;20.20;57.00
44723;DHT22;30451;48.638;10.624;2023-11-18T07:06:17;20.20;57.00
44723;DHT22;30451;48.638;10.624;2023-11-18T07:08:48;20.20;57.10
44723;DHT22;30451;48.638;10.624;2023-11-18T07:11:15;20.20;57.10
44723;DHT22;30451;48.638;10.624;2023-11-18T07:13:41;20.20;57.10
44723;DHT22;30451;48.638;10.624;2023-11-18T07:16:07;20.20;57.10
44723;DHT22;30451;48.638;10.624;2023-11-18T07:18:35;20.10;57.00
44723;DHT22;30451;48.638;10.624;2023-11-18T07:21:00;20.10;57.10
44723;DHT22;30451;48.638;10.624;2023-11-18T07:23:26;20.10;57.10
44723;DHT22;30451;48.638;10.624;2023-11-18T07:25:52;20.10;57.10
44723;DHT22;30451;48.638;10.624;2023-11-18T07:28:19;20.10;57.10
44723;DHT22;30451;48.638;10.624;2023-11-18T07:30:45;20.10;57.10
44723;DHT22;30451;48.638;10.624;2023-11-18T07:33:16;20.10;57.10
44723;DHT22;30451;48.638;10.624;2023-11-18T07:35:42;20.10;57.20
44723;DHT22;30451;48.638;10.624;2023-11-18T07:38:08;20.10;57.20
44723;DHT22;30451;48.638;10.624;2023-11-18T07:40:34;20.10;57.20
44723;DHT22;30451;48.638;10.624;2023-11-18T07:43:00;20.10;57.20
44723;DHT22;30451;48.638;10.624;2023-11-18T07:45:35;20.10;57.20
44723;DHT22;30451;48.638;10.624;2023-11-18T07:48:04;20.10;57.30
44723;DHT22;30451;48.638;10.624;2023-11-18T07:50:38;20.10;57.20
44723;DHT22;30451;48.638;10.624;2023-11-18T07:53:08;20.10;57.30
44723;DHT22;30451;48.638;10.624;2023-11-18T07:55:34;20.10;57.80
44723;DHT22;30451;48.638;10.624;2023-11-18T07:58:01;20.10;57.30
44723;DHT22;30451;48.638;10.624;2023-11-18T08:00:27;20.00;57.80
44723;DHT22;30451;48.638;10.624;2023-11-18T08:02:57;20.00;57.70
44723;DHT22;30451;48.638;10.624;2023-11-18T08:05:22;20.00;57.30
44723;DHT22;30451;48.638;10.624;2023-11-18T08:07:49;20.00;57.30
44723;DHT22;30451;48.638;10.624;2023-11-18T08:10:14;20.00;57.30
44723;DHT22;30451;48.638;10.624;2023-11-18T08:12:44;20.00;57.30
44723;DHT22;30451;48.638;10.624;2023-11-18T08:15:10;20.00;57.30
44723;DHT22;30451;48.638;10.624;2023-11-18T08:17:36;20.00;57.40
44723;DHT22;30451;48.638;10.624;2023-11-18T08:20:02;20.00;57.40
44723;DHT22;30451;48.638;10.624;2023-11-18T08:22:42;20.00;57.40
44723;DHT22;30451;48.638;10.624;2023-11-18T08:25:10;20.00;57.50
44723;DHT22;30451;48.638;10.624;2023-11-18T08:27:37;20.00;57.50
44723;DHT22;30451;48.638;10.624;2023-11-18T08:30:03;20.00;57.50
44723;DHT22;30451;48.638;10.624;2023-11-18T08:32:36;20.00;57.40
44723;DHT22;30451;48.638;10.624;2023-11-18T08:35:04;20.00;57.50
44723;DHT22;30451;48.638;10.624;2023-11-18T08:37:31;20.00;57.50
44723;DHT22;30451;48.638;10.624;2023-11-18T08:39:58;20.00;57.50
44723;DHT22;30451;48.638;10.624;2023-11-18T08:42:23;20.00;57.50
44723;DHT22;30451;48.638;10.624;2023-11-18T08:44:49;20.00;57.50
44723;DHT22;30451;48.638;10.624;2023-11-18T08:47:15;20.00;57.50
44723;DHT22;30451;48.638;10.624;2023-11-18T08:49:43;20.00;57.50
44723;DHT22;30451;48.638;10.624;2023-11-18T08:52:11;20.00;57.50
44723;DHT22;30451;48.638;10.624;2023-11-18T08:54:38;20.00;57.60
44723;DHT22;30451;48.638;10.624;2023-11-18T08:57:24;19.90;57.50
44723;DHT22;30451;48.638;10.624;2023-11-18T08:59:51;20.00;57.60
44723;DHT22;30451;48.638;10.624;2023-11-18T09:02:19;19.90;57.50
44723;DHT22;30451;48.638;10.624;2023-11-18T09:04:49;19.90;57.50
44723;DHT22;30451;48.638;10.624;2023-11-18T09:07:15;19.90;58.10
44723;DHT22;30451;48.638;10.624;2023-11-18T09:09:41;19.90;57.60
44723;DHT22;30451;48.638;10.624;2023-11-18T09:12:07;19.90;57.60
44723;DHT22;30451;48.638;10.624;2023-11-18T09:14:34;19.90;57.60
44723;DHT22;30451;48.638;10.624;2023-11-18T09:16:59;19.90;57.60
44723;DHT22;30451;48.638;10.624;2023-11-18T09:19:27;19.90;57.60
44723;DHT22;30451;48.638;10.624;2023-11-18T09:21:52;19.90;57.60
44723;DHT22;30451;48.638;10.624;2023-11-18T09:24:19;19.90;57.70
44723;DHT22;30451;48.638;10.624;2023-11-18T09:26:46;19.90;57.70
44723;DHT22;30451;48.638;10.624;2023-11-18T09:29:18;19.90;57.70
44723;DHT22;30451;48.638;10.624;2023-11-18T09:31:48;19.90;57.70
44723;DHT22;30451;48.638;10.624;2023-11-18T09:34:15;19.90;57.70
44723;DHT22;30451;48.638;10.624;2023-11-18T09:36:43;19.90;57.70
44723;DHT22;30451;48.638;10.624;2023-11-18T09:39:09;19.90;57.70
44723;DHT22;30451;48.638;10.624;2023-11-18T09:41:41;19.90;57.70
44723;DHT22;30451;48.638;10.624;2023-11-18T09:44:07;19.90;57.80
44723;DHT22;30451;48.638;10.624;2023-11-18T09:46:35;19.90;58.20
44723;DHT22;30451;48.638;10.624;2023-11-18T09:49:26;19.90;58.30
44723;DHT22;30451;48.638;10.624;2023-11-18T09:51:59;19.90;57.80
44723;DHT22;30451;48.638;10.624;2023-11-18T09:54:36;19.90;57.80
44723;DHT22;30451;48.638;10.624;2023-11-18T09:57:08;19.90;57.80
44723;DHT22;30451;48.638;10.624;2023-11-18T10:02:13;19.90;57.80
44723;DHT22;30451;48.638;10.624;2023-11-18T10:04:39;19.90;57.80
44723;DHT22;30451;48.638;10.624;2023-11-18T10:07:09;19.90;57.80
44723;DHT22;30451;48.638;10.624;2023-11-18T10:09:36;19.90;57.80
44723;DHT22;30451;48.638;10.624;2023-11-18T10:12:04;19.90;57.80
44723;DHT22;30451;48.638;10.624;2023-11-18T10:14:33;19.90;57.90
44723;DHT22;30451;48.638;10.624;2023-11-18T10:17:03;19.90;57.90
44723;DHT22;30451;48.638;10.624;2023-11-18T10:22:25;19.90;58.00
44723;DHT22;30451;48.638;10.624;2023-11-18T10:24:52;19.90;57.90
44723;DHT22;30451;48.638;10.624;2023-11-18T10:27:22;19.80;57.90
44723;DHT22;30451;48.638;10.624;2023-11-18T10:29:50;19.90;58.00
44723;DHT22;30451;48.638;10.624;2023-11-18T10:32:17;19.90;58.00
44723;DHT22;30451;48.638;10.624;2023-11-18T10:34:47;19.90;58.00
44723;DHT22;30451;48.638;10.624;2023-11-18T10:37:15;19.90;58.00
44723;DHT22;30451;48.638;10.624;2023-11-18T10:39:47;19.90;58.00
44723;DHT22;30451;48.638;10.624;2023-11-18T10:42:13;19.80;58.00
44723;DHT22;30451;48.638;10.624;2023-11-18T10:44:54;19.90;58.00
44723;DHT22;30451;48.638;10.624;2023-11-18T10:47:26;19.80;58.00
44723;DHT22;30451;48.638;10.624;2023-11-18T10:49:56;19.90;58.10
44723;DHT22;30451;48.638;10.624;2023-11-18T10:52:23;19.80;58.00
44723;DHT22;30451;48.638;10.624;2023-11-18T10:54:52;19.80;58.00
44723;DHT22;30451;48.638;10.624;2023-11-18T10:57:24;19.80;58.00
44723;DHT22;30451;48.638;10.624;2023-11-18T11:00:02;19.80;58.10
44723;DHT22;30451;48.638;10.624;2023-11-18T11:02:32;19.80;58.00
44723;DHT22;30451;48.638;10.624;2023-11-18T11:05:03;19.80;58.00
44723;DHT22;30451;48.638;10.624;2023-11-18T11:07:29;19.80;58.00
44723;DHT22;30451;48.638;10.624;2023-11-18T11:09:57;19.80;57.90
44723;DHT22;30451;48.638;10.624;2023-11-18T11:12:23;19.80;58.00
44723;DHT22;30451;48.638;10.624;2023-11-18T11:15:03;19.80;58.00
44723;DHT22;30451;48.638;10.624;2023-11-18T11:17:30;19.80;57.90
44723;DHT22;30451;48.638;10.624;2023-11-18T11:25:25;19.90;58.60
44723;DHT22;30451;48.638;10.624;2023-11-18T11:30:50;19.80;58.00
44723;DHT22;30451;48.638;10.624;2023-11-18T11:36:02;19.90;58.00
44723;DHT22;30451;48.638;10.624;2023-11-18T11:38:32;19.90;58.00
44723;DHT22;30451;48.638;10.624;2023-11-18T11:40:59;19.80;58.00
44723;DHT22;30451;48.638;10.624;2023-11-18T11:43:27;19.90;58.00
44723;DHT22;30451;48.638;10.624;2023-11-18T11:45:54;19.90;58.00
44723;DHT22;30451;48.638;10.624;2023-11-18T11:48:22;19.90;58.00
44723;DHT22;30451;48.638;10.624;2023-11-18T11:53:36;19.90;58.10
44723;DHT22;30451;48.638;10.624;2023-11-18T11:56:10;19.90;58.00
44723;DHT22;30451;48.638;10.624;2023-11-18T11:58:41;19.90;58.00
44723;DHT22;30451;48.638;10.624;2023-11-18T12:03:52;19.90;58.00
44723;DHT22;30451;48.638;10.624;2023-11-18T12:06:23;19.90;58.00
44723;DHT22;30451;48.638;10.624;2023-11-18T12:08:52;19.90;58.00
44723;DHT22;30451;48.638;10.624;2023-11-18T12:11:19;19.90;58.00
44723;DHT22;30451;48.638;10.624;2023-11-18T12:19:33;19.90;58.00
44723;DHT22;30451;48.638;10.624;2023-11-18T12:22:11;19.90;58.00
44723;DHT22;30451;48.638;10.624;2023-11-18T12:35:24;19.90;58.00
44723;DHT22;30451;48.638;10.624;2023-11-18T12:41:01;19.90;58.00
44723;DHT22;30451;48.638;10.624;2023-11-18T12:46:48;19.90;58.00
44723;DHT22;30451;48.638;10.624;2023-11-18T12:49:19;19.90;58.00
44723;DHT22;30451;48.638;10.624;2023-11-18T12:51:52;19.90;58.00
44723;DHT22;30451;48.638;10.624;2023-11-18T12:54:26;19.90;58.00
44723;DHT22;30451;48.638;10.624;2023-11-18T12:56:55;19.90;58.00
44723;DHT22;30451;48.638;10.624;2023-11-18T12:59:21;19.90;58.00
44723;DHT22;30451;48.638;10.624;2023-11-18T13:01:49;19.90;58.00
44723;DHT22;30451;48.638;10.624;2023-11-18T13:04:25;19.90;58.00
44723;DHT22;30451;48.638;10.624;2023-11-18T13:06:52;19.90;58.00
44723;DHT22;30451;48.638;10.624;2023-11-18T13:09:18;19.90;58.00
44723;DHT22;30451;48.638;10.624;2023-11-18T13:11:55;19.90;58.60
44723;DHT22;30451;48.638;10.624;2023-11-18T13:14:25;19.90;58.00
44723;DHT22;30451;48.638;10.624;2023-11-18T13:16:53;19.90;58.00
44723;DHT22;30451;48.638;10.624;2023-11-18T13:19:29;19.90;58.10
44723;DHT22;30451;48.638;10.624;2023-11-18T13:22:02;19.90;58.10
44723;DHT22;30451;48.638;10.624;2023-11-18T13:24:34;19.90;58.10
44723;DHT22;30451;48.638;10.624;2023-11-18T13:27:01;19.90;58.10
44723;DHT22;30451;48.638;10.624;2023-11-18T13:29:30;19.90;58.00
44723;DHT22;30451;48.638;10.624;2023-11-18T13:31:57;19.90;58.00
44723;DHT22;30451;48.638;10.624;2023-11-18T13:34:23;19.90;58.10
44723;DHT22;30451;48.638;10.624;2023-11-18T13:36:50;19.90;58.10
44723;DHT22;30451;48.638;10.624;2023-11-18T13:39:20;19.90;58.10
44723;DHT22;30451;48.638;10.624;2023-11-18T13:41:50;19.80;58.10
44723;DHT22;30451;48.638;10.624;2023-11-18T13:44:34;19.90;58.20
44723;DHT22;30451;48.638;10.624;2023-11-18T13:47:07;19.90;58.20
44723;DHT22;30451;48.638;10.624;2023-11-18T13:49:33;19.90;58.70
44723;DHT22;30451;48.638;10.624;2023-11-18T13:52:02;19.90;58.20
44723;DHT22;30451;48.638;10.624;2023-11-18T13:54:32;19.80;58.10
44723;DHT22;30451;48.638;10.624;2023-11-18T13:56:58;19.80;58.20
44723;DHT22;30451;48.638;10.624;2023-11-18T13:59:25;19.80;58.20
44723;DHT22;30451;48.638;10.624;2023-11-18T14:01:55;19.80;58.20
44723;DHT22;30451;48.638;10.624;2023-11-18T14:04:24;19.90;58.30
44723;DHT22;30451;48.638;10.624;2023-11-18T14:06:53;19.80;58.30
44723;DHT22;30451;48.638;10.624;2023-11-18T14:09:19;19.80;58.20
44723;DHT22;30451;48.638;10.624;2023-11-18T14:11:56;19.80;58.20
44723;DHT22;30451;48.638;10.624;2023-11-18T14:14:24;19.80;58.20
44723;DHT22;30451;48.638;10.624;2023-11-18T14:16:54;19.80;58.20
44723;DHT22;30451;48.638;10.624;2023-11-18T14:19:27;19.80;58.20
44723;DHT22;30451;48.638;10.624;2023-11-18T14:21:55;19.80;58.30
44723;DHT22;30451;48.638;10.624;2023-11-18T14:24:22;19.80;58.30
44723;DHT22;30451;48.638;10.624;2023-11-18T14:26:56;19.80;58.30
44723;DHT22;30451;48.638;10.624;2023-11-18T14:29:22;19.80;58.30
44723;DHT22;30451;48.638;10.624;2023-11-18T14:31:48;19.80;58.30
44723;DHT22;30451;48.638;10.624;2023-11-18T14:34:14;19.80;58.30
44723;DHT22;30451;48.638;10.624;2023-11-18T14:36:40;19.80;58.30
44723;DHT22;30451;48.638;10.624;2023-11-18T14:39:06;19.80;58.30
44723;DHT22;30451;48.638;10.624;2023-11-18T14:41:36;19.80;58.30
44723;DHT22;30451;48.638;10.624;2023-11-18T14:44:02;19.80;58.30
44723;DHT22;30451;48.638;10.624;2023-11-18T14:46:30;19.80;58.30
44723;DHT22;30451;48.638;10.624;2023-11-18T14:48:57;19.80;58.20
44723;DHT22;30451;48.638;10.624;2023-11-18T14:51:23;19.80;58.30
44723;DHT22;30451;48.638;10.624;2023-11-18T14:53:48;19.90;58.40
44723;DHT22;30451;48.638;10.624;2023-11-18T14:56:14;19.80;58.40
44723;DHT22;30451;48.638;10.624;2023-11-18T14:58:40;19.80;58.40
44723;DHT22;30451;48.638;10.624;2023-11-18T15:01:06;19.80;58.40
44723;DHT22;30451;48.638;10.624;2023-11-18T15:03:36;19.80;58.40
44723;DHT22;30451;48.638;10.624;2023-11-18T15:06:02;19.80;58.30
44723;DHT22;30451;48.638;10.624;2023-11-18T15:08:28;19.80;58.30
44723;DHT22;30451;48.638;10.624;2023-11-18T15:10:56;19.80;58.30
44723;DHT22;30451;48.638;10.624;2023-11-18T15:13:24;19.80;58.30
44723;DHT22;30451;48.638;10.624;2023-11-18T15:15:50;19.80;58.30
44723;DHT22;30451;48.638;10.624;2023-11-18T15:18:16;19.80;58.40
44723;DHT22;30451;48.638;10.624;2023-11-18T15:20:48;19.80;58.30
44723;DHT22;30451;48.638;10.624;2023-11-18T15:23:15;19.80;58.30
44723;DHT22;30451;48.638;10.624;2023-11-18T15:25:44;19.80;58.30
44723;DHT22;30451;48.638;10.624;2023-11-18T15:28:10;19.80;58.40
44723;DHT22;30451;48.638;10.624;2023-11-18T15:30:39;19.80;58.40
44723;DHT22;30451;48.638;10.624;2023-11-18T15:33:06;19.80;58.40
44723;DHT22;30451;48.638;10.624;2023-11-18T15:35:38;19.80;58.50
44723;DHT22;30451;48.638;10.624;2023-11-18T15:38:04;19.80;58.30
44723;DHT22;30451;48.638;10.624;2023-11-18T15:40:34;19.80;58.40
44723;DHT22;30451;48.638;10.624;2023-11-18T15:43:05;19.80;58.40
44723;DHT22;30451;48.638;10.624;2023-11-18T15:45:37;19.80;58.40
44723;DHT22;30451;48.638;10.624;2023-11-18T15:48:02;19.80;58.40
44723;DHT22;30451;48.638;10.624;2023-11-18T15:50:32;19.80;58.40
44723;DHT22;30451;48.638;10.624;2023-11-18T15:53:03;19.80;58.40
44723;DHT22;30451;48.638;10.624;2023-11-18T15:55:29;19.80;58.40
44723;DHT22;30451;48.638;10.624;2023-11-18T15:57:54;19.80;58.40
44723;DHT22;30451;48.638;10.624;2023-11-18T16:00:21;19.80;58.40
44723;DHT22;30451;48.638;10.624;2023-11-18T16:02:48;19.80;58.40
44723;DHT22;30451;48.638;10.624;2023-11-18T16:05:18;19.80;58.40
44723;DHT22;30451;48.638;10.624;2023-11-18T16:07:49;19.80;58.40